Terminal Aerodrome Forecast
Issued by NWS Sterling, VA

Current Version | Previous Version | Text Only | Print | Product List | Glossary Off
Versions: 1 2 3 4 5 6 7 8 9 10 11 12 13 14 15 16 17 18 19 20 21 22

389
FTUS41 KLWX 230847 AAA
TAFIAD
TAF AMD
KIAD 230847Z 2309/2412 VRB03KT P6SM FEW250
     FM232000 28007KT P6SM SCT060
     FM232300 30006KT P6SM BKN060
     FM240200 31004KT P6SM SCT060=

USA.gov is the U.S. government's official web portal to all federal, state and local government web resources and services.